LFOB/BVA METAR and TAF weather

Enter ICAO airport designator
Station Type Date Time Source
LFOB METAR 2019/02/17 15:30 UTC NOAA

LFOB 171530Z AUTO 19010KT CAVOK 15/04 Q1018 NOSIG


Station Type Date Time Source
LFOB Decoded METAR 2019/02/17 15:30 UTC NOAA

Beauvais, France (LFOB) 49-28N 002-07E 111M
Feb 17, 2019 - 10:30 AM EST / 2019.02.17 1530 UTC
Wind: from the S (190 degrees) at 12 MPH (10 KT):0
Visibility: greater than 7 mile(s):0
Temperature: 59 F (15 C)
Dew Point: 39 F (4 C)
Relative Humidity: 47%
Pressure (altimeter): 30.06 in. Hg (1018 hPa)
ob: LFOB 171530Z AUTO 19010KT CAVOK 15/04 Q1018 NOSIG
cycle: 15

Station Type Date Time Source
LFOB TAF 2019/02/17 12:42 UTC NOAA

TAF TAF LFOB 171100Z 1712/1812 17010KT CAVOK
BECMG 1720/1723 VRB03KT 3000 BR PROB40 1800/1808 0500 BCFG
BECMG 1808/1810 20007KT 9999 NSW


Example: see airport list